Norfolk NAS, Virginia
Current Conditions -  °F | °C
As of 4:59 PM on Sunday 25 Jan 2015 (Local Time) from KNGU Reporting Station
Broken Clouds Broken Clouds  
Wind Chill: 52°   Ceiling: 24000
Heat Index: 52°   Visibility: 10mi
Dew Point: 31°   Wind: 0mph
Humidity: 45%   Direction: NA
Pressure: 29.87"   Gusts: NA
Location:  36.93°N, 76.28°W
Report Text: KNGU 252159Z 00000KT 10SM BKN240 11/M01 A2987 RMK AO2 SLP115 T01111006 $
Loading
Personal Weather Stations






























Interactive Weather Map New forecast layout! Learn more

10-Day Weather Forecast

Advertisements
Track Severe Weather on mobile